Saturday, October 20, 2018, 7:02 AM EDT
Back to Local

K1P1, Plymouth, Plymouth Municipal Airport

Location: Plymouth, NH, United States Lat: 43.779
Local Time: 7:02 AM EDT (11:02 GMT) Lon: -71.754
Time Zone: US/Eastern Elev: 505 ft

Show me the last for .
Show Decoded

2018-10-20 06:55 METAR K1P1 201055Z AUTO 00000KT 10SM OVC050 06/05 A2958 RMK AO2 T00630046 =
2018-10-20 06:35 METAR K1P1 201035Z AUTO 00000KT 10SM BKN050 OVC085 07/05 A2959 RMK AO2 T00660045
                 =
2018-10-20 06:15 METAR K1P1 201015Z AUTO 00000KT 10SM BKN055 OVC085 07/04 A2958 RMK AO2 T00720043
                 =
2018-10-20 05:55 METAR K1P1 200955Z AUTO 00000KT 10SM OVC055 07/05 A2959 RMK AO2 T00700045 =
2018-10-20 05:35 METAR K1P1 200935Z AUTO 00000KT 10SM OVC055 06/05 A2961 RMK AO2 T00620048 =
2018-10-20 05:15 METAR K1P1 200915Z AUTO 00000KT 10SM SCT055 OVC100 06/05 A2962 RMK AO2 T00620049
                 =
2018-10-20 04:55 METAR K1P1 200855Z AUTO 00000KT 10SM OVC090 06/05 A2962 RMK AO2 T00600047 =
2018-10-20 04:35 METAR K1P1 200835Z AUTO 00000KT 10SM OVC080 06/05 A2963 RMK AO2 T00600046 =
2018-10-20 04:15 METAR K1P1 200815Z AUTO 00000KT 10SM OVC080 06/05 A2964 RMK AO2 T00610046 =
2018-10-20 03:55 METAR K1P1 200755Z AUTO 00000KT 10SM OVC080 06/05 A2966 RMK AO2 T00600045 =
2018-10-20 03:35 METAR K1P1 200735Z AUTO 00000KT 10SM SCT070 BKN080 OVC090 06/05 A2967 RMK AO2
                 T00610045 =
2018-10-20 03:15 METAR K1P1 200715Z AUTO 00000KT 10SM BKN090 BKN110 06/04 A2967 RMK AO2 T00600044
                 =
2018-10-20 02:55 METAR K1P1 200655Z AUTO 00000KT 10SM OVC110 06/04 A2968 RMK AO2 T00600043 =
2018-10-20 02:35 METAR K1P1 200635Z AUTO 00000KT 10SM SCT090 OVC110 06/04 A2968 RMK AO2 T00600043
                 =
2018-10-20 02:15 METAR K1P1 200615Z AUTO 00000KT 10SM SCT090 OVC110 06/05 A2970 RMK AO2 T00600045
                 =
2018-10-20 01:55 METAR K1P1 200555Z AUTO 00000KT 10SM SCT100 SCT120 06/04 A2971 RMK AO2 T00610044
                 10066 20053 =
2018-10-20 01:35 METAR K1P1 200535Z AUTO 00000KT 10SM CLR 06/04 A2972 RMK AO2 T00600043 =
2018-10-20 01:15 METAR K1P1 200515Z AUTO 00000KT 10SM CLR 06/04 A2974 RMK AO2 T00580042 =
2018-10-20 00:55 METAR K1P1 200455Z AUTO 00000KT 10SM SCT100 SCT120 06/04 A2974 RMK AO2 T00600044
                 =
2018-10-20 00:35 METAR K1P1 200435Z AUTO 06004KT 10SM SCT120 06/05 A2974 RMK AO2 T00560045 =
2018-10-20 00:15 METAR K1P1 200415Z AUTO 03003KT 10SM SCT120 05/04 A2976 RMK AO2 T00530042 =
2018-10-19 23:55 METAR K1P1 200355Z AUTO 00000KT 10SM CLR 06/04 A2977 RMK AO2 T00550043 401651045
                 =
2018-10-19 23:35 METAR K1P1 200335Z AUTO 00000KT 10SM CLR 06/04 A2979 RMK AO2 T00560044 =
2018-10-19 23:15 METAR K1P1 200315Z AUTO 00000KT 10SM CLR 06/04 A2979 RMK AO2 T00560044 =
2018-10-19 22:55 METAR K1P1 200255Z AUTO 10SM CLR 06/04 A2979 RMK AO2 T00550042 =
2018-10-19 22:35 METAR K1P1 200235Z AUTO 00000KT 10SM CLR 06/05 A2980 RMK AO2 T00560045 =
2018-10-19 22:15 METAR K1P1 200215Z AUTO 00000KT 10SM CLR 06/04 A2981 RMK AO2 T00580044 =
2018-10-19 21:55 METAR K1P1 200155Z AUTO 00000KT 10SM CLR 06/04 A2984 RMK AO2 T00580043 =
2018-10-19 21:35 METAR K1P1 200135Z AUTO 00000KT 10SM CLR 06/04 A2983 RMK AO2 T00590044 =
2018-10-19 21:15 METAR K1P1 200115Z AUTO 00000KT 10SM CLR 06/05 A2984 RMK AO2 T00610045 =
2018-10-19 20:55 METAR K1P1 200055Z AUTO 00000KT 10SM CLR 06/05 A2984 RMK AO2 T00640045 =
2018-10-19 20:35 METAR K1P1 200035Z AUTO 00000KT 10SM CLR 06/05 A2986 RMK AO2 T00620045 =
2018-10-19 20:15 METAR K1P1 200015Z AUTO 00000KT 10SM CLR 06/04 A2986 RMK AO2 T00630043 =
2018-10-19 19:55 METAR K1P1 192355Z AUTO 00000KT 10SM CLR 06/04 A2986 RMK AO2 T00630044 10165
                 20061 =
2018-10-19 19:35 METAR K1P1 192335Z AUTO 00000KT 10SM CLR 07/04 A2987 RMK AO2 T00660044 =
2018-10-19 19:15 METAR K1P1 192315Z AUTO 00000KT 10SM CLR 07/04 A2988 RMK AO2 T00680044 =
2018-10-19 18:55 METAR K1P1 192255Z AUTO 00000KT 10SM CLR 07/04 A2990 RMK AO2 T00710044 =
2018-10-19 18:33 METAR K1P1 192235Z AUTO 00000KT 10SM CLR 08/04 A2990 RMK AO2 T00780043 =
2018-10-19 18:15 METAR K1P1 192215Z AUTO 00000KT 10SM CLR 08/05 A2990 RMK AO2 T00800047 =
2018-10-19 17:55 METAR K1P1 192155Z AUTO 00000KT 10SM CLR 09/05 A2990 RMK AO2 T00920050 =
2018-10-19 17:35 METAR K1P1 192135Z AUTO 00000KT 10SM CLR 12/04 A2990 RMK AO2 T01160042 =
2018-10-19 17:15 METAR K1P1 192115Z AUTO 00000KT 10SM CLR 15/04 A2990 RMK AO2 T01500040 =
2018-10-19 16:55 METAR K1P1 192055Z AUTO 23003KT 10SM CLR 16/02 A2990 RMK AO2 T01620021 =
2018-10-19 16:35 METAR K1P1 192035Z AUTO 23005KT 10SM CLR 16/02 A2990 RMK AO2 T01630017 =
2018-10-19 16:15 METAR K1P1 192015Z AUTO 22003KT 10SM CLR 17/02 A2991 RMK AO2 T01650016 =
2018-10-19 15:55 METAR K1P1 191955Z AUTO 00000KT 10SM CLR 16/01 A2991 RMK AO2 T01630014 =
2018-10-19 15:35 METAR K1P1 191935Z AUTO 00000KT 10SM CLR 16/01 A2992 RMK AO2 T01600014 =
2018-10-19 15:15 METAR K1P1 191915Z AUTO 27005KT 10SM CLR 16/02 A2993 RMK AO2 T01580018 =
2018-10-19 14:55 METAR K1P1 191855Z AUTO 26006KT 10SM CLR 16/02 A2994 RMK AO2 T01570019 =
2018-10-19 14:35 METAR K1P1 191835Z AUTO 00000KT 10SM CLR 15/02 A2994 RMK AO2 T01500015 =
2018-10-19 14:15 METAR K1P1 191815Z AUTO 00000KT 10SM CLR 14/02 A2996 RMK AO2 T01410015 =
2018-10-19 13:55 METAR K1P1 191755Z AUTO 00000KT 10SM CLR 14/02 A2998 RMK AO2 T01360015 10136
                 21035 =
2018-10-19 13:35 METAR K1P1 191735Z AUTO 00000KT 10SM CLR 13/01 A2999 RMK AO2 T01260008 =
2018-10-19 13:15 METAR K1P1 191715Z AUTO 00000KT 10SM CLR 13/02 A3000 RMK AO2 T01250015 =
2018-10-19 12:55 METAR K1P1 191655Z AUTO 00000KT 10SM CLR 12/01 A3001 RMK AO2 T01150010 =
2018-10-19 12:35 METAR K1P1 191635Z AUTO 07003KT 10SM CLR 10/01 A3004 RMK AO2 T01040006 =
2018-10-19 12:15 METAR K1P1 191615Z AUTO 00000KT 10SM CLR 10/01 A3006 RMK AO2 T01000006 =
2018-10-19 11:55 METAR K1P1 191555Z AUTO 02003KT 10SM CLR 09/00 A3007 RMK AO2 T00900002 =
2018-10-19 11:35 METAR K1P1 191535Z AUTO 00000KT 10SM CLR 08/00 A3008 RMK AO2 T00790000 =
2018-10-19 11:15 METAR K1P1 191515Z AUTO 00000KT 10SM CLR 07/00 A3009 RMK AO2 T00701004 =
2018-10-19 10:55 METAR K1P1 191455Z AUTO 00000KT 10SM CLR 07/00 A3010 RMK AO2 T00671002 =
2018-10-19 10:35 METAR K1P1 191435Z AUTO 00000KT 10SM CLR 05/M01 A3011 RMK AO2 T00531008 =
2018-10-19 10:15 METAR K1P1 191415Z AUTO 00000KT 10SM CLR 05/00 A3012 RMK AO2 T00451005 =
2018-10-19 09:55 METAR K1P1 191355Z AUTO 00000KT 10SM CLR 03/M01 A3013 RMK AO2 T00301012 =
2018-10-19 09:35 METAR K1P1 191335Z AUTO 00000KT 10SM CLR 02/M02 A3014 RMK AO2 T00151017 =
2018-10-19 09:15 METAR K1P1 191315Z AUTO 00000KT 10SM CLR 00/M02 A3015 RMK AO2 T00001020 =
2018-10-19 08:55 METAR K1P1 191255Z AUTO 00000KT 10SM CLR M01/M02 A3016 RMK AO2 T10081023 =
2018-10-19 08:35 METAR K1P1 191235Z AUTO 00000KT 10SM CLR M02/M02 A3016 RMK AO2 T10161023 =
2018-10-19 08:15 METAR K1P1 191215Z AUTO 00000KT 10SM CLR M03/M03 A3016 RMK AO2 T10261031 =
2018-10-19 07:55 METAR K1P1 191155Z AUTO 00000KT 10SM CLR M04/M04 A3017 RMK AO2 T10361041 11018
                 21045 =
2018-10-19 07:35 METAR K1P1 191135Z AUTO 00000KT 10SM CLR M04/M05 A3016 RMK AO2 T10431048 =
2018-10-19 07:15 METAR K1P1 191115Z AUTO 00000KT 10SM CLR M04/M04 A3017 RMK AO2 T10411045 =

Support USWX by starting your Amazon purchase here.